Configuration
enable temperature 45.00
disable temperature 47.00
timezone = America/New_York
weather station = RAH/102,68
minumum run time = 6

next run at 0, duration = 0 hours
date and timetemperaturerelative humiditywetbulb
2021-07-27T19:00:00 88.000 66.000 78.108 no 0 hours
2021-07-27T20:00:00-------------------- 63.000----------------------------------------
2021-07-27T21:00:00--------------------------------------------------------------------------------
2021-07-27T22:00:00 86.000 68.000 77.042 no 0 hours
2021-07-27T23:00:00 84.000 74.000 77.282 no 0 hours
2021-07-28T00:00:00 82.000 82.000 78.055 no 0 hours
2021-07-28T01:00:00 79.000 94.000 78.916 no 0 hours
2021-07-28T02:00:00-------------------- 91.000----------------------------------------
2021-07-28T03:00:00 78.000------------------------------------------------------------
2021-07-28T04:00:00 77.000 94.000 76.876 no 0 hours
2021-07-28T05:00:00 76.000------------------------------------------------------------
2021-07-28T07:00:00 75.000 97.000 75.711 no 0 hours
2021-07-28T08:00:00--------------------------------------------------------------------------------
2021-07-28T09:00:00 74.000------------------------------------------------------------
2021-07-28T10:00:00--------------------------------------------------------------------------------
2021-07-28T11:00:00 75.000 94.000 74.836 no 0 hours
2021-07-28T12:00:00 77.000 90.000 75.669 no 0 hours
2021-07-28T13:00:00 80.000 85.000 77.085 no 0 hours
2021-07-28T14:00:00 83.000 80.000 78.352 no 0 hours
2021-07-28T15:00:00 85.000 75.000 78.543 no 0 hours
2021-07-28T16:00:00 87.000 70.000 78.635 no 0 hours
2021-07-28T17:00:00 89.000 66.000 78.988 no 0 hours
2021-07-28T18:00:00 90.000 62.000 78.401 no 0 hours
2021-07-28T19:00:00 91.000 58.000 77.775 no 0 hours
2021-07-28T20:00:00--------------------------------------------------------------------------------
2021-07-28T21:00:00 90.000 60.000 77.668 no 0 hours
2021-07-28T22:00:00 89.000 61.000 77.180 no 0 hours
2021-07-28T23:00:00 87.000 65.000 76.876 no 0 hours
2021-07-29T00:00:00 84.000 74.000 77.282 no 0 hours
2021-07-29T01:00:00 81.000 85.000 78.061 no 0 hours
2021-07-29T02:00:00 79.000 88.000 77.046 no 0 hours
2021-07-29T03:00:00 78.000 91.000 76.976 no 0 hours
2021-07-29T04:00:00 77.000 90.000 75.669 no 0 hours
2021-07-29T05:00:00 76.000------------------------------------------------------------
2021-07-29T06:00:00 75.000 94.000 74.836 no 0 hours
2021-07-29T07:00:00--------------------------------------------------------------------------------
2021-07-29T08:00:00 74.000 97.000 74.676 no 0 hours
2021-07-29T09:00:00--------------------------------------------------------------------------------
2021-07-29T10:00:00--------------------------------------------------------------------------------
2021-07-29T11:00:00 75.000 94.000 74.836 no 0 hours
2021-07-29T12:00:00 76.000------------------------------------------------------------
2021-07-29T13:00:00 79.000 88.000 77.046 no 0 hours
2021-07-29T14:00:00 83.000 77.000 77.357 no 0 hours
2021-07-29T15:00:00 86.000 70.000 77.735 no 0 hours
2021-07-29T16:00:00 88.000 63.000 77.038 no 0 hours
2021-07-29T17:00:00 90.000 60.000 77.668 no 0 hours
2021-07-29T18:00:00 91.000 56.000 77.031 no 0 hours
2021-07-29T19:00:00 92.000 54.000 77.108 no 0 hours
2021-07-29T20:00:00--------------------------------------------------------------------------------
2021-07-29T21:00:00--------------------------------------------------------------------------------
2021-07-29T22:00:00 90.000 58.000 76.935 no 0 hours
2021-07-29T23:00:00 89.000 59.000 76.456 no 0 hours
2021-07-30T00:00:00 86.000 68.000 77.042 no 0 hours
2021-07-30T01:00:00 83.000 74.000 76.362 no 0 hours
2021-07-30T02:00:00 82.000 77.000 76.422 no 0 hours
2021-07-30T03:00:00 80.000 79.000 75.185 no 0 hours
2021-07-30T04:00:00 79.000 82.000 75.175 no 0 hours
2021-07-30T06:00:00 78.000 85.000 75.136 no 0 hours
2021-07-30T07:00:00 77.000 87.000 74.764 no 0 hours
2021-07-30T09:00:00 76.000 90.000 74.669 no 0 hours
2021-07-30T12:00:00 78.000 85.000 75.136 no 0 hours
2021-07-30T13:00:00 81.000 77.000 75.487 no 0 hours
2021-07-30T14:00:00 84.000 70.000 75.935 no 0 hours
2021-07-30T15:00:00 87.000 61.000 75.470 no 0 hours
2021-07-30T16:00:00 89.000 56.000 75.371 no 0 hours
2021-07-30T17:00:00 90.000 54.000 75.468 no 0 hours
2021-07-30T18:00:00 91.000 50.000 74.801 no 0 hours
2021-07-30T19:00:00 92.000 49.000 75.224 no 0 hours
2021-07-30T21:00:00 91.000 52.000 75.544 no 0 hours
2021-07-30T22:00:00 90.000 54.000 75.468 no 0 hours
2021-07-30T23:00:00 88.000 57.000 74.898 no 0 hours
2021-07-31T00:00:00 85.000 65.000 75.126 no 0 hours
2021-07-31T01:00:00 81.000 77.000 75.487 no 0 hours
2021-07-31T02:00:00 80.000 79.000 75.185 no 0 hours
2021-07-31T03:00:00 78.000 85.000 75.136 no 0 hours
2021-07-31T04:00:00 77.000------------------------------------------------------------
2021-07-31T05:00:00 76.000------------------------------------------------------------
2021-07-31T06:00:00 75.000 84.000 71.919 no 0 hours
2021-07-31T07:00:00 74.000------------------------------------------------------------
2021-07-31T08:00:00-------------------- 82.000----------------------------------------
2021-07-31T09:00:00 73.000 81.000 69.134 no 0 hours
2021-07-31T10:00:00 72.000 84.000 69.009 no 0 hours
2021-07-31T11:00:00 73.000 81.000 69.134 no 0 hours
2021-07-31T12:00:00 74.000 76.000 68.655 no 0 hours
2021-07-31T13:00:00 77.000 71.000 69.937 no 0 hours
2021-07-31T14:00:00 80.000 65.000 70.751 no 0 hours
2021-07-31T15:00:00 82.000 61.000 71.195 no 0 hours
2021-07-31T16:00:00 83.000 59.000 71.386 no 0 hours
2021-07-31T17:00:00 84.000------------------------------------------------------------
2021-07-31T18:00:00 85.000 57.000 72.393 no 0 hours
2021-07-31T19:00:00 86.000 55.000 72.534 no 0 hours
2021-07-31T22:00:00 84.000 61.000 72.905 no 0 hours
2021-07-31T23:00:00 83.000 63.000 72.713 no 0 hours
2021-08-01T00:00:00 80.000 72.000 72.968 no 0 hours
2021-08-01T01:00:00 77.000 79.000 72.350 no 0 hours
2021-08-01T02:00:00 76.000------------------------------------------------------------
2021-08-01T03:00:00 75.000 82.000 71.335 no 0 hours
2021-08-01T04:00:00 74.000 84.000 70.949 no 0 hours
2021-08-01T05:00:00 73.000------------------------------------------------------------
2021-08-01T07:00:00 72.000 90.000 70.669 no 0 hours
2021-08-01T08:00:00-------------------- 87.000----------------------------------------
2021-08-01T09:00:00 71.000 93.000 70.484 no 0 hours
2021-08-01T11:00:00-------------------- 97.000----------------------------------------
2021-08-01T12:00:00 72.000------------------------------------------------------------
2021-08-01T13:00:00 75.000 87.000 72.794 no 0 hours
2021-08-01T14:00:00 77.000 85.000 74.160 no 0 hours
2021-08-01T15:00:00 80.000 77.000 74.552 no 0 hours
2021-08-01T16:00:00 82.000 72.000 74.788 no 0 hours
2021-08-01T17:00:00 83.000 70.000 75.035 no 0 hours
2021-08-01T18:00:00 84.000 67.000 74.925 no 0 hours
2021-08-01T20:00:00-------------------- 65.000----------------------------------------
2021-08-01T22:00:00 83.000 67.000 74.040 no 0 hours
2021-08-01T23:00:00 81.000 72.000 73.878 no 0 hours
2021-08-02T00:00:00 78.000 79.000 73.295 no 0 hours
2021-08-02T01:00:00 75.000 84.000 71.919 no 0 hours
2021-08-02T02:00:00 74.000 87.000 71.809 no 0 hours
2021-08-02T03:00:00 73.000------------------------------------------------------------
2021-08-02T04:00:00 72.000 90.000 70.669 no 0 hours
2021-08-02T05:00:00-------------------- 87.000----------------------------------------
2021-08-02T06:00:00 71.000 90.000 69.669 no 0 hours
2021-08-02T07:00:00 70.000 93.000 69.469 no 0 hours
2021-08-02T08:00:00-------------------- 90.000----------------------------------------
2021-08-02T09:00:00 69.000 93.000 68.454 no 0 hours
2021-08-02T10:00:00-------------------- 90.000----------------------------------------
2021-08-02T12:00:00 70.000 87.000 67.869 no 0 hours
2021-08-02T13:00:00 72.000 81.000 68.179 no 0 hours
2021-08-02T14:00:00 75.000 76.000 69.585 no 0 hours
2021-08-02T15:00:00 77.000 71.000 69.937 no 0 hours
2021-08-02T16:00:00 78.000 69.000 70.228 no 0 hours
2021-08-02T17:00:00 80.000 62.000 69.801 no 0 hours
2021-08-02T18:00:00 81.000 60.000 70.018 no 0 hours
2021-08-02T19:00:00-------------------- 63.000----------------------------------------
2021-08-02T21:00:00 80.000 67.000 71.385 no 0 hours
2021-08-02T22:00:00 79.000 69.000 71.123 no 0 hours
2021-08-02T23:00:00 78.000 71.000 70.842 no 0 hours
2021-08-03T00:00:00 75.000 79.000 70.460 no 0 hours
2021-08-03T01:00:00 73.000 84.000 69.979 no 0 hours
2021-08-03T02:00:00 72.000 87.000 69.839 no 0 hours
2021-08-03T03:00:00 71.000 90.000 69.669 no 0 hours
2021-08-03T04:00:00 70.000 93.000 69.469 no 0 hours
2021-08-03T05:00:00 69.000------------------------------------------------------------
2021-08-03T07:00:00 68.000 97.000 68.466 no 0 hours
2021-08-03T08:00:00-------------------- 93.000----------------------------------------
2021-08-03T10:00:00 67.000------------------------------------------------------------
2021-08-03T11:00:00-------------------- 97.000----------------------------------------
2021-08-03T12:00:00 68.000 93.000 67.439 no 0 hours
2021-08-03T13:00:00 71.000 84.000 68.039 no 0 hours
2021-08-03T14:00:00 73.000 79.000 68.570 no 0 hours
2021-08-03T15:00:00 76.000 71.000 69.032 no 0 hours
2021-08-03T16:00:00 78.000 67.000 69.615 no 0 hours
2021-08-03T17:00:00 79.000------------------------------------------------------------
2021-08-03T18:00:00 80.000 65.000 70.751 no 0 hours
2021-08-03T22:00:00 79.000 67.000 70.500 no 0 hours
2021-08-03T23:00:00 77.000 71.000 69.937 no 0 hours
2021-08-04T00:00:00 74.000 79.000 69.515 no 0 hours